Resonance — WDI3870 — position and weather

sailwx.info

Track history (hours):
 
Tides and Currents Weather Stations Pressure Air Temp Water Temp Dewpoint Dewpoint Depression Visibility Wind Speed Wind Dir Waves Ship Positions

Resonance

Owner: Ford, Stephen S, Portland, OR. More information available from US FCC via Universal Licensing System and Coast Guard Vessel Documentation Center.

Last reported at 2018-Jun-04 18:09 UTC. Time now 2018-Jun-22 20:30 UTC.
Position N 48°40' W 123°24'.
Warning: this ship's position is 18 days out of date.

Length 15 m.

Type: Sailing vessel. MMSI: 367692760.

Date/timePositionNaut miles runAvg speedWind from/ knotsBaromVisibWave heightAir tempDewpointWater temp
2018-Jun-04 18:09N 48°40' W 123°24'0 0.0
2018-Jun-04 18:00N 48°40' W 123°24'0 0.0
2018-Jun-04 17:27N 48°40' W 123°24'0 0.0
2018-Jun-04 17:00N 48°40' W 123°24'0 0.0
2018-Jun-04 16:30N 48°40' W 123°24'1 1.3
2018-Jun-04 15:57N 48°40' W 123°23'2 5.0
2018-Jun-04 15:30N 48°42' W 123°21'3 5.4
2018-Jun-04 14:59N 48°45' W 123°21'5 5.6
2018-Jun-04 14:08N 48°49' W 123°24'1 7.4
2018-Jun-04 13:58N 48°49' W 123°26'3 5.8
2018-Jun-04 13:23N 48°51' W 123°30'0 0.0
2018-Jun-03 23:16N 48°51' W 123°30'4 4.0
2018-Jun-03 22:14N 48°49' W 123°24'0 0.9
2018-Jun-03 21:59N 48°49' W 123°24'4 2.9
2018-Jun-03 20:43N 48°46' W 123°21'2 3.7
2018-Jun-03 20:15N 48°45' W 123°18'1 2.5
2018-Jun-03 20:00N 48°45' W 123°18'7 0.1
2018-Jun-01 19:05N 48°38' W 123°15'1 4.6
2018-Jun-01 18:51N 48°38' W 123°16'0 0.9
2018-Jun-01 18:28N 48°39' W 123°17'2 3.8
2018-Jun-01 17:59N 48°39' W 123°19'2 3.5
2018-Jun-01 17:27N 48°40' W 123°22'1 2.5
2018-Jun-01 16:59N 48°40' W 123°23'1 1.3
2018-Jun-01 16:29N 48°40' W 123°24'0 0.0
2018-Jun-01 03:25N 48°40' W 123°24'0 0.0
2018-Jun-01 02:58N 48°40' W 123°24'0 0.0
2018-Jun-01 02:28N 48°40' W 123°24'0 0.0
2018-Jun-01 01:58N 48°40' W 123°24'0 0.0
2018-Jun-01 01:28N 48°40' W 123°24'0 0.0
2018-Jun-01 00:58N 48°40' W 123°24'0 0.0
2018-Jun-01 00:28N 48°40' W 123°24'0 0.0
2018-May-31 23:58N 48°40' W 123°24'0 0.0
2018-May-31 23:25N 48°40' W 123°24'0 0.0
2018-May-31 22:58N 48°40' W 123°24'0 0.0
2018-May-31 22:28N 48°40' W 123°24'0 0.0
2018-May-31 21:58N 48°40' W 123°24'  
Track history (hours):
 
Tides and Currents Weather Stations Pressure Air Temp Water Temp Dewpoint Dewpoint Depression Visibility Wind Speed Wind Dir Waves Ship Positions

Resonance

Owner: Ford, Stephen S, Portland, OR. More information available from US FCC via Universal Licensing System and Coast Guard Vessel Documentation Center.

Last reported at 2018-Jun-04 18:09 UTC. Time now 2018-Jun-22 20:30 UTC.
Position N 48°40' W 123°24'.
Warning: this ship's position is 18 days out of date.

Length 15 m.

Type: Sailing vessel. MMSI: 367692760.

Date/timePositionNaut miles runAvg speedWind from/ knotsBaromVisibWave heightAir tempDewpointWater temp
2018-Jun-04 18:09N 48°40' W 123°24'0 0.0
2018-Jun-04 18:00N 48°40' W 123°24'0 0.0
2018-Jun-04 17:27N 48°40' W 123°24'0 0.0
2018-Jun-04 17:00N 48°40' W 123°24'0 0.0
2018-Jun-04 16:30N 48°40' W 123°24'1 1.3
2018-Jun-04 15:57N 48°40' W 123°23'2 5.0
2018-Jun-04 15:30N 48°42' W 123°21'3 5.4
2018-Jun-04 14:59N 48°45' W 123°21'5 5.6
2018-Jun-04 14:08N 48°49' W 123°24'1 7.4
2018-Jun-04 13:58N 48°49' W 123°26'3 5.8
2018-Jun-04 13:23N 48°51' W 123°30'0 0.0
2018-Jun-03 23:16N 48°51' W 123°30'4 4.0
2018-Jun-03 22:14N 48°49' W 123°24'0 0.9
2018-Jun-03 21:59N 48°49' W 123°24'4 2.9
2018-Jun-03 20:43N 48°46' W 123°21'2 3.7
2018-Jun-03 20:15N 48°45' W 123°18'1 2.5
2018-Jun-03 20:00N 48°45' W 123°18'7 0.1
2018-Jun-01 19:05N 48°38' W 123°15'1 4.6
2018-Jun-01 18:51N 48°38' W 123°16'0 0.9
2018-Jun-01 18:28N 48°39' W 123°17'2 3.8
2018-Jun-01 17:59N 48°39' W 123°19'2 3.5
2018-Jun-01 17:27N 48°40' W 123°22'1 2.5
2018-Jun-01 16:59N 48°40' W 123°23'1 1.3
2018-Jun-01 16:29N 48°40' W 123°24'0 0.0
2018-Jun-01 03:25N 48°40' W 123°24'0 0.0
2018-Jun-01 02:58N 48°40' W 123°24'0 0.0
2018-Jun-01 02:28N 48°40' W 123°24'0 0.0
2018-Jun-01 01:58N 48°40' W 123°24'0 0.0
2018-Jun-01 01:28N 48°40' W 123°24'0 0.0
2018-Jun-01 00:58N 48°40' W 123°24'0 0.0
2018-Jun-01 00:28N 48°40' W 123°24'0 0.0
2018-May-31 23:58N 48°40' W 123°24'0 0.0
2018-May-31 23:25N 48°40' W 123°24'0 0.0
2018-May-31 22:58N 48°40' W 123°24'0 0.0
2018-May-31 22:28N 48°40' W 123°24'0 0.0
2018-May-31 21:58N 48°40' W 123°24'  

Dump ship's entire track history